Hub


Voltar

 INFORMAÇÕES METEOROLÓGICAS

METAR FOR SBST


ADDS - METARS form results

(2016 UTC 17 January 2019)
Data provider http://aviationweather.gov/metar/data/
 
METAR text: SBST 172000Z 16009KT CAVOK 33/21 Q1010
Conditions at: SBST (SANTOS (BRAZ-AFB, BR) observed 2000 UTC 17 January 2019
Temperature: 33.0°C (91°F)
Dewpoint: 21.0°C (70°F) [RH = 49%]
Pressure (altimeter): 29.82 inches Hg (1010.0 mb)
Winds: from the SSE (160 degrees) at 10 MPH (9 knots; 4.6 m/s)
Visibility: 6 or more miles (10+ km)
Ceiling: ceiling and visibility are OK
Clouds: unknown
Weather: no significant weather observed at this time


 MAPA DO AEROPORTO


 INFORMAÇÕES DA PISTA

Pista 17 Tamanho da pista 4560 ft Largura da pista 148 ft
Elevação da pista 0 ft Ranhura da pista 0 ft Proa da pista 0
Pista 35 Tamanho da pista 4560 ft Largura da pista 148 ft
Elevação da pista 0 ft Ranhura da pista 0 ft Proa da pista 0

 FREQUÊNCIAS DO AEROPORTO

Tipo APP Nome SAO PAULO Frequência 119.8 MHZ
Tipo TWR Nome TWR Frequência 118.3 MHZ

 AUXÍLIOS DE NAVEGAÇÃO PRÓXIMOS AO AEROPORTO

Tipo NDB Nome Vicente Frequência 360 KHZ
Tipo NDB Nome Santos Frequência 375 KHZ